Social login voor leden:

1. METAR EBOS

METAR EBOS 291550Z 24016KT 9999 FEW040 19/09 Q1012 TEMPO 25018G28KT

2. TAF EBOS

TAF EBOS 291550Z 24016KT 9999 FEW040 19/09 Q1012 TEMPO 25018G28KT

3. NOTAMS EBOS

Klik hier voor een overzicht van de notams.

Deze pagina promoten

Noordzee Vliegclub - Nieuwpoortsesteenweg 947 8400 Oostende - Tel 059 30 04 79 - info@nzvc.be - 

 - Copyright 2020